createdAt,value
2017-03-13T00:00:18.375Z,0
2017-03-13T00:01:18.739Z,0
2017-03-13T00:02:18.699Z,0
2017-03-13T00:03:18.386Z,0
2017-03-13T00:04:18.257Z,0
2017-03-13T00:05:18.653Z,0
2017-03-13T00:06:18.649Z,0
2017-03-13T00:07:17.860Z,0
2017-03-13T00:08:18.638Z,0
2017-03-13T00:09:18.157Z,0
2017-03-13T00:10:18.127Z,0
2017-03-13T00:11:18.133Z,0
2017-03-13T00:12:18.149Z,0
2017-03-13T00:13:18.099Z,0
2017-03-13T00:14:18.432Z,0
2017-03-13T00:15:18.447Z,0
2017-03-13T00:16:18.109Z,0
2017-03-13T00:17:18.367Z,0
2017-03-13T00:18:18.010Z,0
2017-03-13T00:19:17.936Z,0
2017-03-13T00:20:17.545Z,0
2017-03-13T00:21:17.889Z,0
2017-03-13T00:22:17.520Z,0
2017-03-13T00:23:18.255Z,0
2017-03-13T00:24:17.847Z,0
2017-03-13T00:25:17.029Z,0
2017-03-13T00:26:17.434Z,0
2017-03-13T00:27:17.356Z,0
2017-03-13T00:28:17.343Z,0
2017-03-13T00:29:17.315Z,0
2017-03-13T00:30:17.715Z,0
2017-03-13T00:31:17.319Z,0
2017-03-13T00:32:17.652Z,0
2017-03-13T00:33:17.679Z,0
2017-03-13T00:34:17.220Z,0
2017-03-13T00:35:17.263Z,0
2017-03-13T00:36:17.580Z,0
2017-03-13T00:37:17.637Z,0
2017-03-13T00:38:17.527Z,0
2017-03-13T00:39:17.103Z,0
2017-03-13T00:40:16.706Z,0
2017-03-13T00:41:16.666Z,0
2017-03-13T00:42:17.827Z,0
2017-03-13T00:43:17.438Z,0
2017-03-13T00:44:17.778Z,0
2017-03-13T00:45:17.014Z,0
2017-03-13T00:46:16.949Z,0
2017-03-13T00:47:17.759Z,0
2017-03-13T00:48:16.949Z,0
2017-03-13T00:49:17.284Z,0
2017-03-13T00:50:17.370Z,0
2017-03-13T00:51:16.951Z,0
2017-03-13T00:52:16.848Z,0
2017-03-13T00:53:17.634Z,0
2017-03-13T00:54:17.546Z,0
2017-03-13T00:55:17.204Z,0
2017-03-13T00:56:17.108Z,0
2017-03-13T00:57:16.850Z,0
2017-03-13T00:58:17.122Z,0
2017-03-13T00:59:17.052Z,0
2017-03-13T01:00:17.417Z,0
2017-03-13T01:01:17.407Z,0
2017-03-13T01:02:17.405Z,0
2017-03-13T01:03:17.351Z,0
2017-03-13T01:04:16.994Z,0
2017-03-13T01:05:16.546Z,0
2017-03-13T01:06:16.890Z,0
2017-03-13T01:07:17.386Z,0
2017-03-13T01:08:16.451Z,0
2017-03-13T01:09:16.822Z,0
2017-03-13T01:10:16.799Z,0
2017-03-13T01:11:16.781Z,0
2017-03-13T01:12:17.191Z,0
2017-03-13T01:13:17.113Z,0
2017-03-13T01:14:17.212Z,0
2017-03-13T01:15:17.123Z,0
2017-03-13T01:16:17.069Z,0
2017-03-13T01:17:16.640Z,0
2017-03-13T01:18:16.247Z,0
2017-03-13T01:19:16.225Z,0
2017-03-13T01:20:16.624Z,0
2017-03-13T01:21:16.955Z,0
2017-03-13T01:22:17.008Z,0
2017-03-13T01:23:16.942Z,0
2017-03-13T01:24:16.908Z,0
2017-03-13T01:25:16.092Z,0
2017-03-13T01:26:16.095Z,0
2017-03-13T01:27:15.638Z,0
2017-03-13T01:28:16.531Z,0
2017-03-13T01:29:16.385Z,0
2017-03-13T01:30:16.870Z,0
2017-03-13T01:31:16.749Z,0
2017-03-13T01:32:16.781Z,0
2017-03-13T01:33:16.317Z,0
2017-03-13T01:34:16.715Z,0
2017-03-13T01:35:16.672Z,0
2017-03-13T01:36:16.219Z,0
2017-03-13T01:37:15.826Z,0
2017-03-13T01:38:16.617Z,0
2017-03-13T01:39:16.607Z,0
2017-03-13T01:40:16.166Z,0
2017-03-13T01:41:16.132Z,0
2017-03-13T01:42:16.088Z,0
2017-03-13T01:43:16.090Z,0
2017-03-13T01:44:16.482Z,0
2017-03-13T01:45:16.516Z,0
2017-03-13T01:46:15.612Z,0
2017-03-13T01:47:15.602Z,0
2017-03-13T01:48:15.595Z,0
2017-03-13T01:49:15.976Z,0
2017-03-13T01:50:15.555Z,0
2017-03-13T01:51:15.553Z,0
2017-03-13T01:52:15.881Z,0
2017-03-13T01:53:16.330Z,0
2017-03-13T01:54:15.168Z,0
2017-03-13T01:55:15.823Z,0
2017-03-13T01:56:16.176Z,0
2017-03-13T01:57:15.807Z,0
2017-03-13T01:58:16.188Z,0
2017-03-13T01:59:15.333Z,0
2017-03-13T02:00:16.091Z,0
2017-03-13T02:01:16.083Z,0
2017-03-13T02:02:15.293Z,0
2017-03-13T02:03:15.651Z,0
2017-03-13T02:04:15.611Z,0
2017-03-13T02:05:15.605Z,0
2017-03-13T02:06:15.164Z,0
2017-03-13T02:07:15.150Z,0
2017-03-13T02:08:15.513Z,0
2017-03-13T02:09:15.109Z,0
2017-03-13T02:10:14.700Z,0
2017-03-13T02:11:15.561Z,0
2017-03-13T02:12:15.458Z,0
2017-03-13T02:13:15.410Z,0
2017-03-13T02:14:15.830Z,0
2017-03-13T02:15:15.426Z,0
2017-03-13T02:16:14.611Z,0
2017-03-13T02:17:14.956Z,0
2017-03-13T02:18:14.618Z,0
2017-03-13T02:19:14.925Z,0
2017-03-13T02:20:15.253Z,0
2017-03-13T02:21:15.614Z,0
2017-03-13T02:22:14.823Z,0
2017-03-13T02:23:14.847Z,0
2017-03-13T02:24:15.180Z,0
2017-03-13T02:25:15.201Z,0
2017-03-13T02:26:14.732Z,0
2017-03-13T02:27:15.102Z,0
2017-03-13T02:28:14.702Z,0
2017-03-13T02:29:15.051Z,0
2017-03-13T02:30:15.048Z,0
2017-03-13T02:31:15.399Z,0
2017-03-13T02:32:15.377Z,0
2017-03-13T02:33:14.961Z,0
2017-03-13T02:34:14.566Z,0
2017-03-13T02:35:14.536Z,0
2017-03-13T02:36:15.315Z,0
2017-03-13T02:37:14.876Z,0
2017-03-13T02:38:15.245Z,0
2017-03-13T02:39:14.443Z,0
2017-03-13T02:40:14.825Z,0
2017-03-13T02:41:14.043Z,0
2017-03-13T02:42:15.147Z,0
2017-03-13T02:43:14.771Z,0
2017-03-13T02:44:13.955Z,0
2017-03-13T02:45:13.976Z,0
2017-03-13T02:46:14.706Z,0
2017-03-13T02:47:15.058Z,0
2017-03-13T02:48:14.240Z,0
2017-03-13T02:49:13.993Z,0
2017-03-13T02:50:14.298Z,0
2017-03-13T02:51:14.567Z,0
2017-03-13T02:52:14.157Z,0
2017-03-13T02:53:14.556Z,0
2017-03-13T02:54:14.568Z,0
2017-03-13T02:55:14.644Z,0
2017-03-13T02:56:14.846Z,0
2017-03-13T02:57:14.058Z,0
2017-03-13T02:58:14.057Z,0
2017-03-13T02:59:14.784Z,0
2017-03-13T03:00:14.365Z,0
2017-03-13T03:01:13.925Z,0
2017-03-13T03:02:14.330Z,0
2017-03-13T03:03:14.685Z,0
2017-03-13T03:04:14.687Z,0
2017-03-13T03:05:14.297Z,0
2017-03-13T03:06:14.233Z,0
2017-03-13T03:07:14.614Z,0
2017-03-13T03:08:14.198Z,0
2017-03-13T03:09:13.479Z,0
2017-03-13T03:10:14.164Z,0
2017-03-13T03:11:13.424Z,0
2017-03-13T03:12:13.320Z,0
2017-03-13T03:13:14.217Z,0
2017-03-13T03:14:14.043Z,0
2017-03-13T03:15:13.635Z,0
2017-03-13T03:16:14.026Z,0
2017-03-13T03:17:14.201Z,0
2017-03-13T03:18:13.586Z,0
2017-03-13T03:19:13.621Z,0
2017-03-13T03:20:13.923Z,0
2017-03-13T03:21:13.902Z,0
2017-03-13T03:22:14.272Z,0
2017-03-13T03:23:13.923Z,0
2017-03-13T03:24:13.443Z,0
2017-03-13T03:25:13.915Z,0
2017-03-13T03:26:13.776Z,0
2017-03-13T03:27:14.249Z,0
2017-03-13T03:28:13.738Z,0
2017-03-13T03:29:14.091Z,0
2017-03-13T03:30:13.292Z,0
2017-03-13T03:31:14.040Z,0
2017-03-13T03:32:13.246Z,0
2017-03-13T03:33:13.659Z,0
2017-03-13T03:34:13.635Z,0
2017-03-13T03:35:14.120Z,0
2017-03-13T03:36:13.185Z,0
2017-03-13T03:37:13.923Z,0
2017-03-13T03:38:13.135Z,0
2017-03-13T03:39:13.509Z,0
2017-03-13T03:40:13.543Z,0
2017-03-13T03:41:13.823Z,0
2017-03-13T03:42:13.123Z,0
2017-03-13T03:43:13.008Z,0
2017-03-13T03:44:13.406Z,0
2017-03-13T03:45:13.731Z,0
2017-03-13T03:46:13.749Z,0
2017-03-13T03:47:13.699Z,0
2017-03-13T03:48:13.288Z,0
2017-03-13T03:49:13.328Z,0
2017-03-13T03:50:13.620Z,0
2017-03-13T03:51:13.248Z,0
2017-03-13T03:52:13.171Z,0
2017-03-13T03:53:12.797Z,0
2017-03-13T03:54:12.850Z,0
2017-03-13T03:55:12.719Z,0
2017-03-13T03:56:12.822Z,0
2017-03-13T03:57:13.563Z,0
2017-03-13T03:58:13.045Z,0
2017-03-13T03:59:13.512Z,0
2017-03-13T04:00:12.662Z,0
2017-03-13T04:01:12.965Z,0
2017-03-13T04:02:12.943Z,0
2017-03-13T04:03:12.141Z,0
2017-03-13T04:04:12.912Z,0
2017-03-13T04:05:12.488Z,0
2017-03-13T04:06:12.895Z,0
2017-03-13T04:07:12.881Z,0
2017-03-13T04:08:12.437Z,0
2017-03-13T04:09:12.517Z,0
2017-03-13T04:10:12.391Z,0
2017-03-13T04:11:11.993Z,0
2017-03-13T04:12:12.392Z,0
2017-03-13T04:13:12.698Z,0
2017-03-13T04:14:13.088Z,0
2017-03-13T04:15:12.374Z,0
2017-03-13T04:16:12.262Z,0
2017-03-13T04:17:12.745Z,0
2017-03-13T04:18:12.581Z,0
2017-03-13T04:19:12.167Z,0
2017-03-13T04:20:12.141Z,0
2017-03-13T04:21:11.742Z,0
2017-03-13T04:22:12.498Z,0
2017-03-13T04:23:11.700Z,0
2017-03-13T04:24:11.675Z,0
2017-03-13T04:25:12.837Z,0
2017-03-13T04:26:11.681Z,0
2017-03-13T04:27:12.398Z,0
2017-03-13T04:28:12.835Z,0
2017-03-13T04:29:12.390Z,0
2017-03-13T04:30:12.816Z,0
2017-03-13T04:31:11.915Z,0
2017-03-13T04:32:12.266Z,0
2017-03-13T04:33:11.866Z,0
2017-03-13T04:34:11.849Z,0
2017-03-13T04:35:12.214Z,0
2017-03-13T04:36:12.222Z,0
2017-03-13T04:37:12.147Z,0
2017-03-13T04:38:12.521Z,0
2017-03-13T04:39:12.121Z,0
2017-03-13T04:40:12.101Z,0
2017-03-13T04:41:12.454Z,0
2017-03-13T04:42:12.044Z,0
2017-03-13T04:43:11.634Z,0
2017-03-13T04:44:12.112Z,0
2017-03-13T04:45:11.185Z,0
2017-03-13T04:46:11.186Z,0
2017-03-13T04:47:11.975Z,0
2017-03-13T04:48:11.609Z,0
2017-03-13T04:49:11.876Z,0
2017-03-13T04:50:12.025Z,0
2017-03-13T04:51:12.203Z,0
2017-03-13T04:52:12.213Z,0
2017-03-13T04:53:11.775Z,0
2017-03-13T04:54:12.144Z,0
2017-03-13T04:55:12.179Z,0
2017-03-13T04:56:11.723Z,0
2017-03-13T04:57:11.704Z,0
2017-03-13T04:58:12.245Z,0
2017-03-13T04:59:12.031Z,0
2017-03-13T05:00:11.351Z,0
2017-03-13T05:01:11.318Z,0
2017-03-13T05:02:11.926Z,0
2017-03-13T05:03:11.558Z,0
2017-03-13T05:04:11.519Z,0
2017-03-13T05:05:11.909Z,0
2017-03-13T05:06:11.471Z,0
2017-03-13T05:07:11.056Z,0
2017-03-13T05:08:11.099Z,0
2017-03-13T05:09:11.144Z,0
2017-03-13T05:10:11.075Z,0
2017-03-13T05:11:11.761Z,0
2017-03-13T05:12:11.324Z,0
2017-03-13T05:13:10.992Z,0
2017-03-13T05:14:11.287Z,0
2017-03-13T05:15:11.281Z,0
2017-03-13T05:16:11.216Z,0
2017-03-13T05:17:11.213Z,0
2017-03-13T05:18:11.712Z,0
2017-03-13T05:19:11.163Z,0
2017-03-13T05:20:11.638Z,0
2017-03-13T05:21:10.360Z,0
2017-03-13T05:22:11.121Z,0
2017-03-13T05:23:11.079Z,0
2017-03-13T05:24:10.659Z,0
2017-03-13T05:25:11.078Z,0
2017-03-13T05:26:11.004Z,0
2017-03-13T05:27:10.607Z,0
2017-03-13T05:28:10.598Z,0
2017-03-13T05:29:10.138Z,0
2017-03-13T05:30:11.345Z,0
2017-03-13T05:31:09.714Z,0
2017-03-13T05:32:10.532Z,0
2017-03-13T05:33:10.460Z,0
2017-03-13T05:34:10.855Z,0
2017-03-13T05:35:10.801Z,0
2017-03-13T05:36:11.201Z,0
2017-03-13T05:37:10.343Z,0
2017-03-13T05:38:10.061Z,0
2017-03-13T05:39:11.105Z,0
2017-03-13T05:40:11.073Z,0
2017-03-13T05:41:09.897Z,0
2017-03-13T05:42:10.241Z,0
2017-03-13T05:43:11.043Z,0
2017-03-13T05:44:11.007Z,0
2017-03-13T05:45:11.058Z,0
2017-03-13T05:46:10.198Z,0
2017-03-13T05:47:09.716Z,0
2017-03-13T05:48:10.593Z,5
2017-03-13T05:49:10.875Z,5
2017-03-13T05:50:10.094Z,5
2017-03-13T05:51:10.455Z,5
2017-03-13T05:52:10.412Z,5
2017-03-13T05:53:10.363Z,5
2017-03-13T05:54:09.939Z,5
2017-03-13T05:55:09.941Z,5
2017-03-13T05:56:10.292Z,5
2017-03-13T05:57:09.894Z,10
2017-03-13T05:58:10.646Z,10
2017-03-13T05:59:09.862Z,10
2017-03-13T06:00:10.195Z,10
2017-03-13T06:01:10.170Z,10
2017-03-13T06:02:09.789Z,15
2017-03-13T06:03:10.530Z,15
2017-03-13T06:04:09.746Z,15
2017-03-13T06:05:09.305Z,15
2017-03-13T06:06:10.058Z,15
2017-03-13T06:07:10.036Z,15
2017-03-13T06:08:10.406Z,20
2017-03-13T06:09:10.444Z,20
2017-03-13T06:10:09.986Z,20
2017-03-13T06:11:10.014Z,20
2017-03-13T06:12:09.559Z,25
2017-03-13T06:13:09.510Z,25
2017-03-13T06:14:09.862Z,25
2017-03-13T06:15:09.470Z,30
2017-03-13T06:16:09.043Z,30
2017-03-13T06:17:09.406Z,30
2017-03-13T06:18:09.771Z,35
2017-03-13T06:19:10.160Z,35
2017-03-13T06:20:09.748Z,40
2017-03-13T06:21:09.332Z,40
2017-03-13T06:22:09.688Z,45
2017-03-13T06:23:08.897Z,45
2017-03-13T06:24:10.095Z,50
2017-03-13T06:25:09.996Z,45
2017-03-13T06:26:09.572Z,50
2017-03-13T06:27:09.195Z,50
2017-03-13T06:28:09.544Z,55
2017-03-13T06:29:09.152Z,55
2017-03-13T06:30:09.104Z,60
2017-03-13T06:31:09.871Z,60
2017-03-13T06:32:09.455Z,60
2017-03-13T06:33:09.450Z,65
2017-03-13T06:34:08.688Z,65
2017-03-13T06:35:09.732Z,65
2017-03-13T06:36:09.741Z,70
2017-03-13T06:37:08.943Z,70
2017-03-13T06:38:08.920Z,75
2017-03-13T06:39:08.899Z,75
2017-03-13T06:40:09.265Z,80
2017-03-13T06:41:09.228Z,85
2017-03-13T06:42:08.878Z,85
2017-03-13T06:43:09.580Z,85
2017-03-13T06:44:08.785Z,90
2017-03-13T06:45:09.539Z,90
2017-03-13T06:46:08.345Z,95
2017-03-13T06:47:08.709Z,100
2017-03-13T06:48:08.696Z,105
2017-03-13T06:49:09.443Z,110
2017-03-13T06:50:08.316Z,120
2017-03-13T06:51:08.994Z,115
2017-03-13T06:52:08.199Z,115
2017-03-13T06:53:08.652Z,125
2017-03-13T06:54:09.071Z,140
2017-03-13T06:55:09.302Z,185
2017-03-13T06:56:08.870Z,205
2017-03-13T06:57:09.274Z,165
2017-03-13T06:58:08.455Z,150
2017-03-13T06:59:09.224Z,165
2017-03-13T07:00:09.209Z,170
2017-03-13T07:01:08.788Z,280
2017-03-13T07:02:09.135Z,435
2017-03-13T07:03:08.372Z,530
2017-03-13T07:04:08.379Z,525
2017-03-13T07:05:07.888Z,475
2017-03-13T07:06:08.670Z,515
2017-03-13T07:07:08.652Z,550
2017-03-13T07:08:08.619Z,480
2017-03-13T07:09:09.012Z,430
2017-03-13T07:10:08.985Z,560
2017-03-13T07:11:08.195Z,600
2017-03-13T07:12:08.919Z,600
2017-03-13T07:13:08.908Z,550
2017-03-13T07:14:08.484Z,540
2017-03-13T07:15:08.500Z,515
2017-03-13T07:16:08.130Z,430
2017-03-13T07:17:08.447Z,405
2017-03-13T07:18:08.824Z,370
2017-03-13T07:19:07.637Z,380
2017-03-13T07:20:08.003Z,395
2017-03-13T07:21:08.765Z,300
2017-03-13T07:22:07.973Z,230
2017-03-13T07:23:08.373Z,215
2017-03-13T07:24:08.293Z,235
2017-03-13T07:25:07.910Z,245
2017-03-13T07:26:08.275Z,215
2017-03-13T07:27:08.634Z,200
2017-03-13T07:28:08.602Z,205
2017-03-13T07:29:07.819Z,205
2017-03-13T07:30:07.774Z,215
2017-03-13T07:31:07.852Z,215
2017-03-13T07:32:08.123Z,205
2017-03-13T07:33:08.267Z,200
2017-03-13T07:34:08.091Z,215
2017-03-13T07:35:07.758Z,240
2017-03-13T07:36:08.041Z,240
2017-03-13T07:37:08.023Z,220
2017-03-13T07:38:07.625Z,225
2017-03-13T07:39:08.368Z,230
2017-03-13T07:40:07.188Z,245
2017-03-13T07:41:08.351Z,255
2017-03-13T07:42:07.939Z,275
2017-03-13T07:43:07.508Z,280
2017-03-13T07:44:07.905Z,270
2017-03-13T07:45:08.044Z,265
2017-03-13T07:46:08.333Z,265
2017-03-13T07:47:07.460Z,270
2017-03-13T07:48:07.855Z,285
2017-03-13T07:49:08.187Z,345
2017-03-13T07:50:07.846Z,485
2017-03-13T07:51:07.819Z,595
2017-03-13T07:52:07.347Z,655
2017-03-13T07:53:07.871Z,665
2017-03-13T07:54:07.691Z,625
2017-03-13T07:55:07.824Z,595
2017-03-13T07:56:08.089Z,575
2017-03-13T07:57:07.757Z,560
2017-03-13T07:58:07.630Z,500
2017-03-13T07:59:07.722Z,460
2017-03-13T08:00:07.596Z,510
2017-03-13T08:01:07.589Z,505
2017-03-13T08:02:07.617Z,615
2017-03-13T08:03:07.547Z,615
2017-03-13T08:04:07.526Z,545
2017-03-13T08:05:07.495Z,525
2017-03-13T08:06:07.508Z,515
2017-03-13T08:07:07.564Z,435
2017-03-13T08:08:07.123Z,355
2017-03-13T08:09:07.208Z,345
2017-03-13T08:10:07.857Z,345
2017-03-13T08:11:07.463Z,335
2017-03-13T08:12:07.401Z,325
2017-03-13T08:13:07.425Z,280
2017-03-13T08:14:07.793Z,265
2017-03-13T08:15:07.761Z,260
2017-03-13T08:16:07.351Z,260
2017-03-13T08:17:06.539Z,265
2017-03-13T08:18:07.307Z,255
2017-03-13T08:19:06.903Z,240
2017-03-13T08:20:07.407Z,220
2017-03-13T08:21:06.999Z,210
2017-03-13T08:22:07.667Z,205
2017-03-13T08:23:07.645Z,210
2017-03-13T08:24:07.655Z,215
2017-03-13T08:25:07.180Z,215
2017-03-13T08:26:07.172Z,215
2017-03-13T08:27:07.538Z,215
2017-03-13T08:28:06.792Z,215
2017-03-13T08:29:07.108Z,210
2017-03-13T08:30:07.183Z,215
2017-03-13T08:31:07.084Z,210
2017-03-13T08:32:07.082Z,210
2017-03-13T08:33:06.671Z,215
2017-03-13T08:34:07.019Z,225
2017-03-13T08:35:06.990Z,245
2017-03-13T08:36:06.977Z,280
2017-03-13T08:37:06.582Z,330
2017-03-13T08:38:06.963Z,370
2017-03-13T08:39:07.329Z,460
2017-03-13T08:40:06.565Z,575
2017-03-13T08:41:06.547Z,445
2017-03-13T08:42:07.292Z,375
2017-03-13T08:43:06.484Z,380
2017-03-13T08:44:07.233Z,395
2017-03-13T08:45:06.848Z,400
2017-03-13T08:46:06.793Z,360
2017-03-13T08:47:06.771Z,345
2017-03-13T08:48:07.158Z,370
2017-03-13T08:49:06.754Z,400
2017-03-13T08:50:07.135Z,495
2017-03-13T08:51:06.355Z,610
2017-03-13T08:52:06.689Z,795
2017-03-13T08:53:06.315Z,1015
2017-03-13T08:54:05.897Z,1120
2017-03-13T08:55:06.643Z,1205
2017-03-13T08:56:06.763Z,1140
2017-03-13T08:57:06.687Z,1360
2017-03-13T08:58:06.586Z,1380
2017-03-13T08:59:07.001Z,1450
2017-03-13T09:00:06.958Z,1465
2017-03-13T09:01:06.982Z,1495
2017-03-13T09:02:06.947Z,1475
2017-03-13T09:03:06.538Z,1460
2017-03-13T09:04:06.540Z,1450
2017-03-13T09:05:06.555Z,1550
2017-03-13T09:06:06.878Z,1560
2017-03-13T09:07:06.485Z,1655
2017-03-13T09:08:06.867Z,1660
2017-03-13T09:09:06.479Z,1575
2017-03-13T09:10:06.550Z,1565
2017-03-13T09:11:06.471Z,1540
2017-03-13T09:12:06.485Z,1500
2017-03-13T09:13:06.460Z,1345
2017-03-13T09:14:06.831Z,1670
2017-03-13T09:15:06.801Z,1625
2017-03-13T09:16:06.031Z,1425
2017-03-13T09:17:06.006Z,1470
2017-03-13T09:18:06.368Z,1520
2017-03-13T09:19:06.412Z,1515
2017-03-13T09:20:06.017Z,1485
2017-03-13T09:21:06.467Z,1410
2017-03-13T09:22:06.736Z,1485
2017-03-13T09:23:06.806Z,1535
2017-03-13T09:24:06.359Z,1470
2017-03-13T09:25:06.738Z,1425
2017-03-13T09:26:05.952Z,1475
2017-03-13T09:27:05.914Z,1495
2017-03-13T09:28:05.957Z,1505
2017-03-13T09:29:06.702Z,1500
2017-03-13T09:30:06.282Z,1450
2017-03-13T09:31:06.322Z,1465
2017-03-13T09:32:06.678Z,1440
2017-03-13T09:33:06.290Z,1425
2017-03-13T09:34:05.980Z,1465
2017-03-13T09:35:05.858Z,1435
2017-03-13T09:36:06.250Z,1455
2017-03-13T09:37:05.882Z,1415
2017-03-13T09:38:06.247Z,1395
2017-03-13T09:39:06.232Z,1395
2017-03-13T09:40:05.885Z,1390
2017-03-13T09:41:06.326Z,1475
2017-03-13T09:42:05.917Z,1390
2017-03-13T09:43:06.201Z,1270
2017-03-13T09:44:05.863Z,1330
2017-03-13T09:45:06.586Z,1330
2017-03-13T09:46:06.297Z,1275
2017-03-13T09:47:06.180Z,1275
2017-03-13T09:48:05.843Z,1360
2017-03-13T09:49:05.787Z,1395
2017-03-13T09:50:05.774Z,1370
2017-03-13T09:51:06.172Z,1335
2017-03-13T09:52:06.199Z,1235
2017-03-13T09:53:05.347Z,1235
2017-03-13T09:54:06.129Z,1155
2017-03-13T09:55:06.554Z,935
2017-03-13T09:56:05.732Z,795
2017-03-13T09:57:06.111Z,760
2017-03-13T09:58:06.515Z,840
2017-03-13T09:59:06.088Z,660
2017-03-13T10:00:06.565Z,780
2017-03-13T10:01:06.173Z,800
2017-03-13T10:02:06.515Z,845
2017-03-13T10:03:06.490Z,935
2017-03-13T10:04:06.078Z,890
2017-03-13T10:05:05.674Z,945
2017-03-13T10:06:05.655Z,995
2017-03-13T10:07:05.642Z,855
2017-03-13T10:08:06.021Z,910
2017-03-13T10:09:05.630Z,920
2017-03-13T10:10:05.638Z,935
2017-03-13T10:11:06.448Z,985
2017-03-13T10:12:06.383Z,905
2017-03-13T10:13:05.607Z,955
2017-03-13T10:14:06.377Z,975
2017-03-13T10:15:05.973Z,885
2017-03-13T10:16:05.953Z,830
2017-03-13T10:17:06.356Z,880
2017-03-13T10:18:06.337Z,955
2017-03-13T10:19:05.966Z,955
2017-03-13T10:20:05.137Z,1030
2017-03-13T10:21:05.919Z,980
2017-03-13T10:22:06.402Z,1005
2017-03-13T10:23:06.383Z,940
2017-03-13T10:24:05.989Z,970
2017-03-13T10:25:06.433Z,1050
2017-03-13T10:26:05.892Z,980
2017-03-13T10:27:06.265Z,1050
2017-03-13T10:28:05.473Z,960
2017-03-13T10:29:06.250Z,1080
2017-03-13T10:30:06.260Z,1110
2017-03-13T10:31:06.212Z,785
2017-03-13T10:32:05.480Z,795
2017-03-13T10:33:05.449Z,905
2017-03-13T10:34:05.815Z,765
2017-03-13T10:35:06.177Z,565
2017-03-13T10:36:05.802Z,475
2017-03-13T10:37:05.782Z,515
2017-03-13T10:38:05.766Z,685
2017-03-13T10:39:05.795Z,675
2017-03-13T10:40:05.756Z,605
2017-03-13T10:41:05.384Z,715
2017-03-13T10:42:06.127Z,820
2017-03-13T10:43:05.742Z,715
2017-03-13T10:44:05.332Z,575
2017-03-13T10:45:05.707Z,780
2017-03-13T10:46:06.107Z,820
2017-03-13T10:47:05.771Z,800
2017-03-13T10:48:06.083Z,865
2017-03-13T10:49:05.784Z,855
2017-03-13T10:50:05.285Z,850
2017-03-13T10:51:06.031Z,825
2017-03-13T10:52:06.047Z,815
2017-03-13T10:53:05.634Z,795
2017-03-13T10:54:06.057Z,800
2017-03-13T10:55:05.636Z,740
2017-03-13T10:56:05.624Z,700
2017-03-13T10:57:05.208Z,660
2017-03-13T10:58:05.975Z,675
2017-03-13T10:59:05.595Z,750
2017-03-13T11:00:05.641Z,745
2017-03-13T11:01:05.180Z,555
2017-03-13T11:02:05.557Z,475
2017-03-13T11:03:05.532Z,475
2017-03-13T11:04:05.968Z,455
2017-03-13T11:05:05.995Z,425
2017-03-13T11:06:05.570Z,380
2017-03-13T11:07:05.917Z,345
2017-03-13T11:08:05.500Z,335
2017-03-13T11:09:05.098Z,330
2017-03-13T11:10:05.868Z,325
2017-03-13T11:11:05.538Z,315
2017-03-13T11:12:05.452Z,315
2017-03-13T11:13:04.674Z,310
2017-03-13T11:14:05.437Z,295
2017-03-13T11:15:05.067Z,280
2017-03-13T11:16:05.822Z,280
2017-03-13T11:17:05.810Z,280
2017-03-13T11:18:05.425Z,280
2017-03-13T11:19:05.383Z,280
2017-03-13T11:20:05.802Z,275
2017-03-13T11:21:05.082Z,275
2017-03-13T11:22:04.612Z,275
2017-03-13T11:23:05.349Z,275
2017-03-13T11:24:05.731Z,275
2017-03-13T11:25:05.320Z,275
2017-03-13T11:26:04.955Z,270
2017-03-13T11:27:05.703Z,270
2017-03-13T11:28:05.008Z,270
2017-03-13T11:29:05.708Z,270
2017-03-13T11:30:05.308Z,270
2017-03-13T11:31:05.779Z,270
2017-03-13T11:32:05.660Z,270
2017-03-13T11:33:04.471Z,270
2017-03-13T11:34:05.287Z,270
2017-03-13T11:35:05.225Z,270
2017-03-13T11:36:05.278Z,270
2017-03-13T11:37:05.703Z,270
2017-03-13T11:38:04.845Z,270
2017-03-13T11:39:04.810Z,270
2017-03-13T11:40:05.540Z,270
2017-03-13T11:41:05.594Z,265
2017-03-13T11:42:05.147Z,270
2017-03-13T11:43:05.551Z,270
2017-03-13T11:44:05.604Z,275
2017-03-13T11:45:04.751Z,270
2017-03-13T11:46:05.506Z,270
2017-03-13T11:47:04.733Z,265
2017-03-13T11:48:05.501Z,270
2017-03-13T11:49:04.696Z,270
2017-03-13T11:50:05.128Z,270
2017-03-13T11:51:04.668Z,270
2017-03-13T11:52:05.085Z,270
2017-03-13T11:53:04.645Z,270
2017-03-13T11:54:05.024Z,265
2017-03-13T11:55:05.035Z,265
2017-03-13T11:56:05.415Z,270
2017-03-13T11:57:05.022Z,270
2017-03-13T11:58:04.622Z,275
2017-03-13T11:59:05.362Z,265
2017-03-13T12:00:05.342Z,270
2017-03-13T12:01:05.343Z,270
2017-03-13T12:02:04.940Z,270
2017-03-13T12:03:04.927Z,270
2017-03-13T12:04:04.534Z,270
2017-03-13T12:05:04.898Z,270
2017-03-13T12:06:04.640Z,270
2017-03-13T12:07:04.956Z,265
2017-03-13T12:08:04.466Z,265
2017-03-13T12:09:05.247Z,265
2017-03-13T12:10:05.244Z,265
2017-03-13T12:11:04.445Z,270
2017-03-13T12:12:05.244Z,265
2017-03-13T12:13:04.415Z,265
2017-03-13T12:14:04.484Z,265
2017-03-13T12:15:04.866Z,265
2017-03-13T12:16:04.405Z,265
2017-03-13T12:17:05.303Z,265
2017-03-13T12:18:04.772Z,265
2017-03-13T12:19:04.371Z,265
2017-03-13T12:20:05.151Z,265
2017-03-13T12:21:05.141Z,265
2017-03-13T12:22:05.092Z,265
2017-03-13T12:23:04.351Z,265
2017-03-13T12:24:04.756Z,265
2017-03-13T12:25:04.308Z,265
2017-03-13T12:26:04.695Z,265
2017-03-13T12:27:05.118Z,260
2017-03-13T12:28:04.675Z,260
2017-03-13T12:29:04.751Z,260
2017-03-13T12:30:05.029Z,260
2017-03-13T12:31:04.631Z,260
2017-03-13T12:32:04.213Z,260
2017-03-13T12:33:05.094Z,260
2017-03-13T12:34:04.584Z,260
2017-03-13T12:35:04.200Z,260
2017-03-13T12:36:04.570Z,260
2017-03-13T12:37:05.032Z,260
2017-03-13T12:38:04.212Z,260
2017-03-13T12:39:03.839Z,260
2017-03-13T12:40:04.518Z,260
2017-03-13T12:41:04.961Z,260
2017-03-13T12:42:04.503Z,255
2017-03-13T12:43:04.130Z,255
2017-03-13T12:44:04.476Z,255
2017-03-13T12:45:04.108Z,255
2017-03-13T12:46:04.516Z,255
2017-03-13T12:47:04.856Z,255
2017-03-13T12:48:03.722Z,255
2017-03-13T12:49:03.660Z,255
2017-03-13T12:50:04.146Z,255
2017-03-13T12:51:04.410Z,255
2017-03-13T12:54:15.461Z,255
2017-03-13T12:54:25.392Z,255
2017-03-13T12:55:25.861Z,250
2017-03-13T12:56:25.770Z,250
2017-03-13T12:57:26.161Z,250
2017-03-13T12:58:26.217Z,255
2017-03-13T12:59:26.182Z,255
2017-03-13T13:00:25.409Z,255
2017-03-13T13:01:25.681Z,255
2017-03-13T13:02:25.667Z,255
2017-03-13T13:03:25.680Z,255
2017-03-13T13:04:25.663Z,255
2017-03-13T13:05:24.849Z,255
2017-03-13T13:06:25.682Z,250
2017-03-13T13:07:25.604Z,255
2017-03-13T13:08:25.604Z,255
2017-03-13T13:09:25.595Z,255
2017-03-13T13:10:25.573Z,255
2017-03-13T13:11:25.574Z,255
2017-03-13T13:12:24.784Z,260
2017-03-13T13:13:25.150Z,260
2017-03-13T13:14:25.145Z,255
2017-03-13T13:15:25.192Z,255
2017-03-13T13:16:25.509Z,255
2017-03-13T13:17:25.542Z,245
2017-03-13T13:18:25.159Z,240
2017-03-13T13:19:25.487Z,245
2017-03-13T13:20:25.458Z,250
2017-03-13T13:21:25.077Z,250
2017-03-13T13:22:25.118Z,250
2017-03-13T13:23:25.452Z,250
2017-03-13T13:24:25.429Z,250
2017-03-13T13:25:25.424Z,250
2017-03-13T13:26:25.133Z,250
2017-03-13T13:27:25.013Z,245
2017-03-13T13:28:25.767Z,245
2017-03-13T13:29:25.774Z,245
2017-03-13T13:30:25.365Z,245
2017-03-13T13:31:25.762Z,245
2017-03-13T13:32:25.351Z,245
2017-03-13T13:33:24.940Z,245
2017-03-13T13:34:25.010Z,245
2017-03-13T13:35:24.941Z,245
2017-03-13T13:36:25.689Z,245
2017-03-13T13:37:25.279Z,250
2017-03-13T13:38:24.907Z,245
2017-03-13T13:39:24.872Z,245
2017-03-13T13:40:25.641Z,245
2017-03-13T13:41:24.867Z,245
2017-03-13T13:42:24.506Z,245
2017-03-13T13:43:24.826Z,250
2017-03-13T13:44:24.455Z,245
2017-03-13T13:45:24.813Z,245
2017-03-13T13:46:24.509Z,250
2017-03-13T13:47:25.193Z,235
2017-03-13T13:48:25.188Z,245
2017-03-13T13:49:24.831Z,245
2017-03-13T13:50:24.379Z,240
2017-03-13T13:51:25.151Z,240
2017-03-13T13:52:25.190Z,235
2017-03-13T13:53:25.512Z,215
2017-03-13T13:54:24.711Z,215
2017-03-13T13:55:25.499Z,195
2017-03-13T13:56:25.073Z,200
2017-03-13T13:57:25.578Z,180
2017-03-13T13:58:24.712Z,175
2017-03-13T13:59:25.137Z,175
2017-03-13T14:00:25.045Z,175
2017-03-13T14:01:25.031Z,185
2017-03-13T14:02:25.006Z,185
2017-03-13T14:03:25.377Z,175
2017-03-13T14:04:24.993Z,165
2017-03-13T14:05:25.455Z,150
2017-03-13T14:06:24.675Z,140
2017-03-13T14:07:24.989Z,130
2017-03-13T14:08:25.102Z,130
2017-03-13T14:09:24.951Z,125
2017-03-13T14:10:24.920Z,130
2017-03-13T14:11:25.330Z,125